sensor_id;sensor_type;location;lat;lon;timestamp;P1;durP1;ratioP1;P2;durP2;ratioP2
68744;SDS011;73143;45.456;11.064;2024-03-08T00:00:26;6.50;;;3.70;;
68744;SDS011;73143;45.456;11.064;2024-03-08T00:03:04;5.80;;;3.80;;
68744;SDS011;73143;45.456;11.064;2024-03-08T00:05:42;5.20;;;3.40;;
68744;SDS011;73143;45.456;11.064;2024-03-08T00:08:18;6.30;;;4.10;;
68744;SDS011;73143;45.456;11.064;2024-03-08T00:10:55;5.70;;;3.60;;
68744;SDS011;73143;45.456;11.064;2024-03-08T00:13:32;5.70;;;3.50;;
68744;SDS011;73143;45.456;11.064;2024-03-08T00:16:09;5.90;;;3.90;;
68744;SDS011;73143;45.456;11.064;2024-03-08T00:18:46;7.00;;;4.50;;
68744;SDS011;73143;45.456;11.064;2024-03-08T00:21:21;5.90;;;3.80;;
68744;SDS011;73143;45.456;11.064;2024-03-08T00:23:58;7.00;;;4.20;;
68744;SDS011;73143;45.456;11.064;2024-03-08T00:26:34;6.00;;;3.80;;
68744;SDS011;73143;45.456;11.064;2024-03-08T00:29:11;7.20;;;4.20;;
68744;SDS011;73143;45.456;11.064;2024-03-08T00:31:47;8.00;;;4.00;;
68744;SDS011;73143;45.456;11.064;2024-03-08T00:34:24;5.90;;;3.70;;
68744;SDS011;73143;45.456;11.064;2024-03-08T00:37:00;6.70;;;4.00;;
68744;SDS011;73143;45.456;11.064;2024-03-08T00:39:37;5.60;;;3.40;;
68744;SDS011;73143;45.456;11.064;2024-03-08T00:42:14;6.00;;;3.70;;
68744;SDS011;73143;45.456;11.064;2024-03-08T00:44:53;6.80;;;4.40;;
68744;SDS011;73143;45.456;11.064;2024-03-08T00:47:29;5.40;;;3.70;;
68744;SDS011;73143;45.456;11.064;2024-03-08T00:50:08;6.90;;;4.70;;
68744;SDS011;73143;45.456;11.064;2024-03-08T00:52:46;6.40;;;4.50;;
68744;SDS011;73143;45.456;11.064;2024-03-08T00:55:23;7.80;;;4.60;;
68744;SDS011;73143;45.456;11.064;2024-03-08T00:58:01;6.60;;;4.60;;
68744;SDS011;73143;45.456;11.064;2024-03-08T01:00:37;6.50;;;4.40;;
68744;SDS011;73143;45.456;11.064;2024-03-08T01:03:15;7.70;;;4.80;;
68744;SDS011;73143;45.456;11.064;2024-03-08T01:05:51;8.70;;;4.50;;
68744;SDS011;73143;45.456;11.064;2024-03-08T01:08:27;7.00;;;4.70;;
68744;SDS011;73143;45.456;11.064;2024-03-08T01:11:05;7.10;;;4.10;;
68744;SDS011;73143;45.456;11.064;2024-03-08T01:13:42;8.80;;;4.70;;
68744;SDS011;73143;45.456;11.064;2024-03-08T01:16:19;6.00;;;4.20;;
68744;SDS011;73143;45.456;11.064;2024-03-08T01:18:56;8.40;;;4.80;;
68744;SDS011;73143;45.456;11.064;2024-03-08T01:21:33;9.00;;;5.00;;
68744;SDS011;73143;45.456;11.064;2024-03-08T01:24:10;8.20;;;5.30;;
68744;SDS011;73143;45.456;11.064;2024-03-08T01:26:45;7.10;;;4.90;;
68744;SDS011;73143;45.456;11.064;2024-03-08T01:29:22;7.50;;;4.70;;
68744;SDS011;73143;45.456;11.064;2024-03-08T01:31:59;8.40;;;4.80;;
68744;SDS011;73143;45.456;11.064;2024-03-08T01:34:35;6.40;;;4.60;;
68744;SDS011;73143;45.456;11.064;2024-03-08T01:37:12;9.10;;;5.00;;
68744;SDS011;73143;45.456;11.064;2024-03-08T01:39:49;7.20;;;4.60;;
68744;SDS011;73143;45.456;11.064;2024-03-08T01:42:26;6.90;;;4.70;;
68744;SDS011;73143;45.456;11.064;2024-03-08T01:45:02;8.50;;;4.70;;
68744;SDS011;73143;45.456;11.064;2024-03-08T01:47:41;7.00;;;4.40;;
68744;SDS011;73143;45.456;11.064;2024-03-08T01:50:20;6.80;;;4.70;;
68744;SDS011;73143;45.456;11.064;2024-03-08T01:52:56;7.50;;;4.50;;
68744;SDS011;73143;45.456;11.064;2024-03-08T01:55:32;7.50;;;5.00;;
68744;SDS011;73143;45.456;11.064;2024-03-08T01:58:11;6.10;;;4.00;;
68744;SDS011;73143;45.456;11.064;2024-03-08T02:00:50;6.80;;;4.50;;
68744;SDS011;73143;45.456;11.064;2024-03-08T02:03:29;7.50;;;5.10;;
68744;SDS011;73143;45.456;11.064;2024-03-08T02:06:07;7.10;;;4.30;;
68744;SDS011;73143;45.456;11.064;2024-03-08T02:08:43;9.10;;;4.70;;
68744;SDS011;73143;45.456;11.064;2024-03-08T02:11:20;7.80;;;4.80;;
68744;SDS011;73143;45.456;11.064;2024-03-08T02:13:57;7.40;;;4.30;;
68744;SDS011;73143;45.456;11.064;2024-03-08T02:16:33;9.10;;;4.60;;
68744;SDS011;73143;45.456;11.064;2024-03-08T02:19:10;6.80;;;4.70;;
68744;SDS011;73143;45.456;11.064;2024-03-08T02:21:48;7.10;;;4.70;;
68744;SDS011;73143;45.456;11.064;2024-03-08T02:24:25;6.80;;;4.70;;
68744;SDS011;73143;45.456;11.064;2024-03-08T02:27:02;7.10;;;3.70;;
68744;SDS011;73143;45.456;11.064;2024-03-08T02:29:39;7.40;;;5.00;;
68744;SDS011;73143;45.456;11.064;2024-03-08T02:32:17;6.70;;;4.60;;
68744;SDS011;73143;45.456;11.064;2024-03-08T02:34:55;7.10;;;4.40;;
68744;SDS011;73143;45.456;11.064;2024-03-08T02:37:32;7.80;;;4.60;;
68744;SDS011;73143;45.456;11.064;2024-03-08T02:40:12;5.90;;;3.80;;
68744;SDS011;73143;45.456;11.064;2024-03-08T02:42:49;6.50;;;4.30;;
68744;SDS011;73143;45.456;11.064;2024-03-08T02:45:25;6.80;;;4.50;;
68744;SDS011;73143;45.456;11.064;2024-03-08T02:48:02;6.80;;;4.50;;
68744;SDS011;73143;45.456;11.064;2024-03-08T02:50:41;6.50;;;4.20;;
68744;SDS011;73143;45.456;11.064;2024-03-08T02:53:17;6.20;;;4.70;;
68744;SDS011;73143;45.456;11.064;2024-03-08T02:55:53;8.10;;;4.10;;
68744;SDS011;73143;45.456;11.064;2024-03-08T02:58:30;7.00;;;4.80;;
68744;SDS011;73143;45.456;11.064;2024-03-08T03:01:07;9.90;;;5.20;;
68744;SDS011;73143;45.456;11.064;2024-03-08T03:03:44;8.60;;;5.40;;
68744;SDS011;73143;45.456;11.064;2024-03-08T03:06:21;7.50;;;5.00;;
68744;SDS011;73143;45.456;11.064;2024-03-08T03:08:57;7.60;;;5.10;;
68744;SDS011;73143;45.456;11.064;2024-03-08T03:11:34;6.40;;;4.20;;
68744;SDS011;73143;45.456;11.064;2024-03-08T03:14:10;7.40;;;4.40;;
68744;SDS011;73143;45.456;11.064;2024-03-08T03:16:47;7.20;;;4.50;;
68744;SDS011;73143;45.456;11.064;2024-03-08T03:19:24;6.10;;;3.80;;
68744;SDS011;73143;45.456;11.064;2024-03-08T03:22:01;7.20;;;4.10;;
68744;SDS011;73143;45.456;11.064;2024-03-08T03:24:38;5.90;;;4.00;;
68744;SDS011;73143;45.456;11.064;2024-03-08T03:27:14;6.60;;;4.20;;
68744;SDS011;73143;45.456;11.064;2024-03-08T03:29:51;4.70;;;3.40;;
68744;SDS011;73143;45.456;11.064;2024-03-08T03:32:28;6.60;;;4.10;;
68744;SDS011;73143;45.456;11.064;2024-03-08T03:35:06;6.00;;;4.00;;
68744;SDS011;73143;45.456;11.064;2024-03-08T03:37:44;6.10;;;3.90;;
68744;SDS011;73143;45.456;11.064;2024-03-08T03:40:33;5.90;;;4.10;;
68744;SDS011;73143;45.456;11.064;2024-03-08T03:43:10;5.80;;;3.90;;
68744;SDS011;73143;45.456;11.064;2024-03-08T03:45:47;6.50;;;3.70;;
68744;SDS011;73143;45.456;11.064;2024-03-08T03:48:24;7.10;;;4.40;;
68744;SDS011;73143;45.456;11.064;2024-03-08T03:51:00;5.60;;;3.80;;
68744;SDS011;73143;45.456;11.064;2024-03-08T03:53:37;6.20;;;3.80;;
68744;SDS011;73143;45.456;11.064;2024-03-08T03:56:13;6.00;;;3.70;;
68744;SDS011;73143;45.456;11.064;2024-03-08T03:58:50;5.70;;;3.40;;
68744;SDS011;73143;45.456;11.064;2024-03-08T04:01:26;5.50;;;3.50;;
68744;SDS011;73143;45.456;11.064;2024-03-08T04:04:07;5.70;;;3.50;;
68744;SDS011;73143;45.456;11.064;2024-03-08T04:06:45;6.50;;;3.90;;
68744;SDS011;73143;45.456;11.064;2024-03-08T04:09:22;5.50;;;3.70;;
68744;SDS011;73143;45.456;11.064;2024-03-08T04:11:59;6.30;;;3.70;;
68744;SDS011;73143;45.456;11.064;2024-03-08T04:14:35;6.20;;;3.60;;
68744;SDS011;73143;45.456;11.064;2024-03-08T04:17:12;6.50;;;4.20;;
68744;SDS011;73143;45.456;11.064;2024-03-08T04:19:49;6.00;;;3.90;;
68744;SDS011;73143;45.456;11.064;2024-03-08T04:22:25;6.10;;;3.80;;
68744;SDS011;73143;45.456;11.064;2024-03-08T04:25:02;5.10;;;3.20;;
68744;SDS011;73143;45.456;11.064;2024-03-08T04:27:38;5.10;;;3.50;;
68744;SDS011;73143;45.456;11.064;2024-03-08T04:30:16;5.00;;;2.50;;
68744;SDS011;73143;45.456;11.064;2024-03-08T04:32:53;5.50;;;3.80;;
68744;SDS011;73143;45.456;11.064;2024-03-08T04:35:29;6.00;;;3.70;;
68744;SDS011;73143;45.456;11.064;2024-03-08T04:38:05;5.10;;;3.20;;
68744;SDS011;73143;45.456;11.064;2024-03-08T04:40:42;5.40;;;3.50;;
68744;SDS011;73143;45.456;11.064;2024-03-08T04:43:18;5.90;;;4.00;;
68744;SDS011;73143;45.456;11.064;2024-03-08T04:45:57;4.60;;;3.10;;
68744;SDS011;73143;45.456;11.064;2024-03-08T04:48:34;5.20;;;3.50;;
68744;SDS011;73143;45.456;11.064;2024-03-08T04:51:13;6.70;;;3.20;;
68744;SDS011;73143;45.456;11.064;2024-03-08T04:53:51;6.00;;;4.10;;
68744;SDS011;73143;45.456;11.064;2024-03-08T04:56:28;5.80;;;4.00;;
68744;SDS011;73143;45.456;11.064;2024-03-08T04:59:05;6.90;;;4.00;;
68744;SDS011;73143;45.456;11.064;2024-03-08T05:01:42;7.40;;;4.10;;
68744;SDS011;73143;45.456;11.064;2024-03-08T05:04:18;6.00;;;3.40;;
68744;SDS011;73143;45.456;11.064;2024-03-08T05:06:56;8.50;;;4.60;;
68744;SDS011;73143;45.456;11.064;2024-03-08T05:09:34;7.20;;;4.80;;
68744;SDS011;73143;45.456;11.064;2024-03-08T05:12:12;8.00;;;4.30;;
68744;SDS011;73143;45.456;11.064;2024-03-08T05:14:48;6.00;;;4.00;;
68744;SDS011;73143;45.456;11.064;2024-03-08T05:17:25;7.10;;;4.10;;
68744;SDS011;73143;45.456;11.064;2024-03-08T05:20:01;6.10;;;4.10;;
68744;SDS011;73143;45.456;11.064;2024-03-08T05:22:39;4.60;;;3.30;;
68744;SDS011;73143;45.456;11.064;2024-03-08T05:25:16;7.20;;;4.20;;
68744;SDS011;73143;45.456;11.064;2024-03-08T05:27:53;5.50;;;3.80;;
68744;SDS011;73143;45.456;11.064;2024-03-08T05:30:31;6.80;;;3.60;;
68744;SDS011;73143;45.456;11.064;2024-03-08T05:33:09;4.30;;;3.00;;
68744;SDS011;73143;45.456;11.064;2024-03-08T05:35:45;5.70;;;3.60;;
68744;SDS011;73143;45.456;11.064;2024-03-08T05:38:22;5.40;;;3.50;;
68744;SDS011;73143;45.456;11.064;2024-03-08T05:40:59;6.40;;;3.60;;
68744;SDS011;73143;45.456;11.064;2024-03-08T05:43:35;5.40;;;3.60;;
68744;SDS011;73143;45.456;11.064;2024-03-08T05:46:15;5.20;;;3.30;;
68744;SDS011;73143;45.456;11.064;2024-03-08T05:48:52;6.30;;;3.70;;
68744;SDS011;73143;45.456;11.064;2024-03-08T05:51:28;4.90;;;3.40;;
68744;SDS011;73143;45.456;11.064;2024-03-08T05:54:08;5.90;;;3.70;;
68744;SDS011;73143;45.456;11.064;2024-03-08T05:56:50;5.50;;;4.00;;
68744;SDS011;73143;45.456;11.064;2024-03-08T05:59:26;5.10;;;3.30;;
68744;SDS011;73143;45.456;11.064;2024-03-08T06:02:03;5.70;;;3.70;;
68744;SDS011;73143;45.456;11.064;2024-03-08T06:04:39;5.50;;;3.60;;
68744;SDS011;73143;45.456;11.064;2024-03-08T06:07:15;5.80;;;4.50;;
68744;SDS011;73143;45.456;11.064;2024-03-08T06:09:52;6.00;;;3.90;;
68744;SDS011;73143;45.456;11.064;2024-03-08T06:12:28;6.70;;;4.20;;
68744;SDS011;73143;45.456;11.064;2024-03-08T06:15:10;5.60;;;3.80;;
68744;SDS011;73143;45.456;11.064;2024-03-08T06:17:47;6.30;;;3.90;;
68744;SDS011;73143;45.456;11.064;2024-03-08T06:20:24;5.20;;;3.90;;
68744;SDS011;73143;45.456;11.064;2024-03-08T06:23:01;6.10;;;4.40;;
68744;SDS011;73143;45.456;11.064;2024-03-08T06:25:37;5.60;;;4.10;;
68744;SDS011;73143;45.456;11.064;2024-03-08T06:28:13;5.80;;;4.00;;
68744;SDS011;73143;45.456;11.064;2024-03-08T06:30:50;5.20;;;3.80;;
68744;SDS011;73143;45.456;11.064;2024-03-08T06:33:27;6.90;;;4.10;;
68744;SDS011;73143;45.456;11.064;2024-03-08T06:36:05;6.70;;;4.70;;
68744;SDS011;73143;45.456;11.064;2024-03-08T06:38:43;5.00;;;3.80;;
68744;SDS011;73143;45.456;11.064;2024-03-08T06:41:21;6.20;;;3.70;;
68744;SDS011;73143;45.456;11.064;2024-03-08T06:43:58;5.60;;;3.80;;
68744;SDS011;73143;45.456;11.064;2024-03-08T06:46:33;5.90;;;4.20;;
68744;SDS011;73143;45.456;11.064;2024-03-08T06:49:09;5.20;;;4.00;;
68744;SDS011;73143;45.456;11.064;2024-03-08T06:51:46;5.40;;;3.90;;
68744;SDS011;73143;45.456;11.064;2024-03-08T06:54:23;6.20;;;4.00;;
68744;SDS011;73143;45.456;11.064;2024-03-08T06:57:00;5.10;;;3.80;;
68744;SDS011;73143;45.456;11.064;2024-03-08T06:59:38;4.90;;;3.60;;
68744;SDS011;73143;45.456;11.064;2024-03-08T07:02:14;4.30;;;3.00;;
68744;SDS011;73143;45.456;11.064;2024-03-08T07:04:50;6.30;;;4.30;;
68744;SDS011;73143;45.456;11.064;2024-03-08T07:07:26;7.00;;;4.70;;
68744;SDS011;73143;45.456;11.064;2024-03-08T07:10:04;8.20;;;5.00;;
68744;SDS011;73143;45.456;11.064;2024-03-08T07:12:46;6.70;;;4.60;;
68744;SDS011;73143;45.456;11.064;2024-03-08T07:15:22;5.70;;;3.90;;
68744;SDS011;73143;45.456;11.064;2024-03-08T07:17:59;6.20;;;4.20;;
68744;SDS011;73143;45.456;11.064;2024-03-08T07:20:36;6.80;;;4.70;;
68744;SDS011;73143;45.456;11.064;2024-03-08T07:23:13;7.70;;;4.80;;
68744;SDS011;73143;45.456;11.064;2024-03-08T07:26:10;6.40;;;4.30;;
68744;SDS011;73143;45.456;11.064;2024-03-08T07:28:50;7.80;;;5.20;;
68744;SDS011;73143;45.456;11.064;2024-03-08T07:31:26;6.30;;;4.40;;
68744;SDS011;73143;45.456;11.064;2024-03-08T07:34:15;7.50;;;4.90;;
68744;SDS011;73143;45.456;11.064;2024-03-08T07:36:51;8.00;;;5.30;;
68744;SDS011;73143;45.456;11.064;2024-03-08T07:39:27;7.30;;;4.90;;
68744;SDS011;73143;45.456;11.064;2024-03-08T07:42:04;7.50;;;4.60;;
68744;SDS011;73143;45.456;11.064;2024-03-08T07:44:41;7.30;;;4.90;;
68744;SDS011;73143;45.456;11.064;2024-03-08T07:47:19;6.70;;;4.70;;
68744;SDS011;73143;45.456;11.064;2024-03-08T07:49:55;8.60;;;5.20;;
68744;SDS011;73143;45.456;11.064;2024-03-08T07:52:35;6.90;;;4.40;;
68744;SDS011;73143;45.456;11.064;2024-03-08T07:55:14;7.60;;;4.40;;
68744;SDS011;73143;45.456;11.064;2024-03-08T07:57:51;6.00;;;3.60;;
68744;SDS011;73143;45.456;11.064;2024-03-08T08:00:28;7.40;;;4.90;;
68744;SDS011;73143;45.456;11.064;2024-03-08T08:03:06;6.40;;;4.70;;
68744;SDS011;73143;45.456;11.064;2024-03-08T08:05:42;6.50;;;4.50;;
68744;SDS011;73143;45.456;11.064;2024-03-08T08:08:20;7.00;;;4.40;;
68744;SDS011;73143;45.456;11.064;2024-03-08T08:10:57;6.40;;;4.40;;
68744;SDS011;73143;45.456;11.064;2024-03-08T08:13:34;7.10;;;5.10;;
68744;SDS011;73143;45.456;11.064;2024-03-08T08:16:10;7.90;;;4.70;;
68744;SDS011;73143;45.456;11.064;2024-03-08T08:18:46;7.40;;;4.70;;
68744;SDS011;73143;45.456;11.064;2024-03-08T08:21:24;7.10;;;4.40;;
68744;SDS011;73143;45.456;11.064;2024-03-08T08:24:00;7.20;;;4.80;;
68744;SDS011;73143;45.456;11.064;2024-03-08T08:26:35;7.10;;;4.90;;
68744;SDS011;73143;45.456;11.064;2024-03-08T08:29:11;8.20;;;5.10;;
68744;SDS011;73143;45.456;11.064;2024-03-08T08:31:47;7.00;;;4.40;;
68744;SDS011;73143;45.456;11.064;2024-03-08T11:46:12;6.00;;;4.10;;
68744;SDS011;73143;45.456;11.064;2024-03-08T11:49:03;7.50;;;5.00;;
68744;SDS011;73143;45.456;11.064;2024-03-08T11:51:53;9.00;;;3.90;;
68744;SDS011;73143;45.456;11.064;2024-03-08T11:54:36;6.90;;;4.40;;
68744;SDS011;73143;45.456;11.064;2024-03-08T11:57:28;7.20;;;4.30;;
68744;SDS011;73143;45.456;11.064;2024-03-08T12:00:20;6.20;;;4.10;;
68744;SDS011;73143;45.456;11.064;2024-03-08T12:03:08;7.90;;;4.30;;
68744;SDS011;73143;45.456;11.064;2024-03-08T12:06:06;6.20;;;4.20;;
68744;SDS011;73143;45.456;11.064;2024-03-08T12:08:51;6.30;;;4.00;;
68744;SDS011;73143;45.456;11.064;2024-03-08T12:11:49;5.80;;;3.90;;
68744;SDS011;73143;45.456;11.064;2024-03-08T12:14:32;5.10;;;3.30;;
68744;SDS011;73143;45.456;11.064;2024-03-08T12:17:15;5.30;;;3.90;;
68744;SDS011;73143;45.456;11.064;2024-03-08T12:19:57;6.20;;;3.80;;
68744;SDS011;73143;45.456;11.064;2024-03-08T12:22:56;5.80;;;3.90;;
68744;SDS011;73143;45.456;11.064;2024-03-08T12:25:34;6.20;;;3.80;;
68744;SDS011;73143;45.456;11.064;2024-03-08T12:28:12;6.80;;;4.70;;
68744;SDS011;73143;45.456;11.064;2024-03-08T12:31:00;5.30;;;3.90;;
68744;SDS011;73143;45.456;11.064;2024-03-08T12:33:54;5.60;;;3.70;;
68744;SDS011;73143;45.456;11.064;2024-03-08T12:36:34;6.80;;;3.90;;
68744;SDS011;73143;45.456;11.064;2024-03-08T12:39:19;6.10;;;3.70;;
68744;SDS011;73143;45.456;11.064;2024-03-08T12:42:17;5.60;;;4.10;;
68744;SDS011;73143;45.456;11.064;2024-03-08T12:44:57;6.40;;;3.90;;
68744;SDS011;73143;45.456;11.064;2024-03-08T12:47:36;5.90;;;3.60;;
68744;SDS011;73143;45.456;11.064;2024-03-08T12:50:24;5.20;;;3.80;;
68744;SDS011;73143;45.456;11.064;2024-03-08T12:53:08;5.10;;;3.60;;
68744;SDS011;73143;45.456;11.064;2024-03-08T12:55:46;5.30;;;3.90;;
68744;SDS011;73143;45.456;11.064;2024-03-08T12:58:26;5.00;;;3.60;;
68744;SDS011;73143;45.456;11.064;2024-03-08T13:01:03;5.80;;;3.50;;
68744;SDS011;73143;45.456;11.064;2024-03-08T13:03:45;5.80;;;3.80;;
68744;SDS011;73143;45.456;11.064;2024-03-08T13:06:30;5.90;;;3.90;;
68744;SDS011;73143;45.456;11.064;2024-03-08T13:09:19;5.10;;;3.70;;
68744;SDS011;73143;45.456;11.064;2024-03-08T13:12:01;6.20;;;3.70;;
68744;SDS011;73143;45.456;11.064;2024-03-08T13:14:50;6.50;;;4.10;;
68744;SDS011;73143;45.456;11.064;2024-03-08T13:17:37;4.80;;;3.60;;
68744;SDS011;73143;45.456;11.064;2024-03-08T13:20:18;5.20;;;3.40;;
68744;SDS011;73143;45.456;11.064;2024-03-08T13:23:05;8.50;;;4.30;;
68744;SDS011;73143;45.456;11.064;2024-03-08T13:25:50;4.90;;;3.50;;
68744;SDS011;73143;45.456;11.064;2024-03-08T13:28:31;6.10;;;3.70;;
68744;SDS011;73143;45.456;11.064;2024-03-08T13:31:20;5.20;;;3.60;;
68744;SDS011;73143;45.456;11.064;2024-03-08T13:33:59;6.00;;;3.80;;
68744;SDS011;73143;45.456;11.064;2024-03-08T13:36:47;5.00;;;3.30;;
68744;SDS011;73143;45.456;11.064;2024-03-08T13:39:26;4.90;;;3.60;;
68744;SDS011;73143;45.456;11.064;2024-03-08T13:42:12;6.40;;;4.40;;
68744;SDS011;73143;45.456;11.064;2024-03-08T13:44:55;5.10;;;3.70;;
68744;SDS011;73143;45.456;11.064;2024-03-08T13:47:42;7.60;;;4.00;;
68744;SDS011;73143;45.456;11.064;2024-03-08T13:50:23;6.30;;;4.30;;
68744;SDS011;73143;45.456;11.064;2024-03-08T13:53:05;6.80;;;4.60;;
68744;SDS011;73143;45.456;11.064;2024-03-08T13:55:45;5.10;;;3.80;;
68744;SDS011;73143;45.456;11.064;2024-03-08T13:58:22;6.70;;;4.20;;
68744;SDS011;73143;45.456;11.064;2024-03-08T14:01:08;5.10;;;4.10;;
68744;SDS011;73143;45.456;11.064;2024-03-08T14:03:50;6.80;;;4.30;;
68744;SDS011;73143;45.456;11.064;2024-03-08T14:06:26;5.40;;;4.10;;
68744;SDS011;73143;45.456;11.064;2024-03-08T14:09:11;6.30;;;3.90;;
68744;SDS011;73143;45.456;11.064;2024-03-08T14:11:55;5.80;;;4.20;;
68744;SDS011;73143;45.456;11.064;2024-03-08T14:14:43;7.00;;;4.60;;
68744;SDS011;73143;45.456;11.064;2024-03-08T14:17:26;6.00;;;3.90;;
68744;SDS011;73143;45.456;11.064;2024-03-08T14:20:12;5.50;;;4.20;;
68744;SDS011;73143;45.456;11.064;2024-03-08T14:22:56;6.90;;;4.50;;
68744;SDS011;73143;45.456;11.064;2024-03-08T14:25:37;6.90;;;4.60;;
68744;SDS011;73143;45.456;11.064;2024-03-08T14:28:15;6.60;;;4.20;;
68744;SDS011;73143;45.456;11.064;2024-03-08T14:30:59;7.30;;;4.90;;
68744;SDS011;73143;45.456;11.064;2024-03-08T14:33:37;7.00;;;4.70;;
68744;SDS011;73143;45.456;11.064;2024-03-08T14:36:14;6.10;;;4.60;;
68744;SDS011;73143;45.456;11.064;2024-03-08T14:38:57;6.90;;;4.10;;
68744;SDS011;73143;45.456;11.064;2024-03-08T14:41:37;8.20;;;5.30;;
68744;SDS011;73143;45.456;11.064;2024-03-08T14:44:19;6.20;;;4.40;;
68744;SDS011;73143;45.456;11.064;2024-03-08T14:46:57;6.20;;;4.70;;
68744;SDS011;73143;45.456;11.064;2024-03-08T14:49:49;6.50;;;4.60;;
68744;SDS011;73143;45.456;11.064;2024-03-08T14:52:36;7.20;;;4.50;;
68744;SDS011;73143;45.456;11.064;2024-03-08T14:55:18;6.70;;;4.90;;
68744;SDS011;73143;45.456;11.064;2024-03-08T14:58:05;6.00;;;4.30;;
68744;SDS011;73143;45.456;11.064;2024-03-08T15:00:50;8.00;;;5.30;;
68744;SDS011;73143;45.456;11.064;2024-03-08T15:03:28;7.50;;;5.50;;
68744;SDS011;73143;45.456;11.064;2024-03-08T15:06:09;8.80;;;5.00;;
68744;SDS011;73143;45.456;11.064;2024-03-08T15:08:59;7.50;;;5.10;;
68744;SDS011;73143;45.456;11.064;2024-03-08T15:11:57;8.30;;;4.80;;
68744;SDS011;73143;45.456;11.064;2024-03-08T15:14:34;9.40;;;4.80;;
68744;SDS011;73143;45.456;11.064;2024-03-08T15:17:15;7.40;;;5.10;;
68744;SDS011;73143;45.456;11.064;2024-03-08T15:19:53;8.20;;;4.60;;
68744;SDS011;73143;45.456;11.064;2024-03-08T15:22:36;7.30;;;4.90;;
68744;SDS011;73143;45.456;11.064;2024-03-08T15:25:16;8.10;;;4.90;;
68744;SDS011;73143;45.456;11.064;2024-03-08T15:28:01;7.20;;;4.70;;
68744;SDS011;73143;45.456;11.064;2024-03-08T15:30:51;7.60;;;5.30;;
68744;SDS011;73143;45.456;11.064;2024-03-08T15:33:39;8.70;;;5.10;;
68744;SDS011;73143;45.456;11.064;2024-03-08T15:36:32;6.60;;;4.90;;
68744;SDS011;73143;45.456;11.064;2024-03-08T15:39:17;7.20;;;5.00;;
68744;SDS011;73143;45.456;11.064;2024-03-08T15:41:55;7.90;;;4.10;;
68744;SDS011;73143;45.456;11.064;2024-03-08T15:44:38;8.90;;;5.20;;
68744;SDS011;73143;45.456;11.064;2024-03-08T15:47:17;7.90;;;5.20;;
68744;SDS011;73143;45.456;11.064;2024-03-08T15:50:02;7.30;;;5.10;;
68744;SDS011;73143;45.456;11.064;2024-03-08T15:52:47;7.00;;;5.00;;
68744;SDS011;73143;45.456;11.064;2024-03-08T15:55:29;9.10;;;5.80;;
68744;SDS011;73143;45.456;11.064;2024-03-08T15:58:06;8.90;;;5.40;;
68744;SDS011;73143;45.456;11.064;2024-03-08T16:00:50;8.20;;;5.60;;
68744;SDS011;73143;45.456;11.064;2024-03-08T16:03:36;9.10;;;4.90;;
68744;SDS011;73143;45.456;11.064;2024-03-08T16:06:25;7.50;;;4.70;;
68744;SDS011;73143;45.456;11.064;2024-03-08T16:09:15;7.40;;;5.10;;
68744;SDS011;73143;45.456;11.064;2024-03-08T16:11:58;8.80;;;5.60;;
68744;SDS011;73143;45.456;11.064;2024-03-08T16:14:40;10.40;;;5.30;;
68744;SDS011;73143;45.456;11.064;2024-03-08T16:17:23;7.30;;;5.10;;
68744;SDS011;73143;45.456;11.064;2024-03-08T16:19:59;7.20;;;5.10;;
68744;SDS011;73143;45.456;11.064;2024-03-08T16:22:48;8.40;;;5.20;;
68744;SDS011;73143;45.456;11.064;2024-03-08T16:25:26;9.00;;;5.40;;
68744;SDS011;73143;45.456;11.064;2024-03-08T16:28:12;9.90;;;6.00;;
68744;SDS011;73143;45.456;11.064;2024-03-08T16:30:57;8.50;;;5.90;;
68744;SDS011;73143;45.456;11.064;2024-03-08T16:33:43;8.10;;;5.60;;
68744;SDS011;73143;45.456;11.064;2024-03-08T16:36:19;8.30;;;5.50;;
68744;SDS011;73143;45.456;11.064;2024-03-08T16:39:04;8.70;;;5.30;;
68744;SDS011;73143;45.456;11.064;2024-03-08T16:41:51;7.50;;;4.90;;
68744;SDS011;73143;45.456;11.064;2024-03-08T16:44:28;7.40;;;5.50;;
68744;SDS011;73143;45.456;11.064;2024-03-08T16:47:07;8.70;;;6.00;;
68744;SDS011;73143;45.456;11.064;2024-03-08T16:49:50;9.70;;;5.90;;
68744;SDS011;73143;45.456;11.064;2024-03-08T16:52:27;8.90;;;5.90;;
68744;SDS011;73143;45.456;11.064;2024-03-08T16:55:08;8.30;;;5.70;;
68744;SDS011;73143;45.456;11.064;2024-03-08T16:57:50;9.70;;;6.20;;
68744;SDS011;73143;45.456;11.064;2024-03-08T17:00:27;8.60;;;5.70;;
68744;SDS011;73143;45.456;11.064;2024-03-08T17:03:07;14.80;;;6.70;;
68744;SDS011;73143;45.456;11.064;2024-03-08T17:05:52;8.30;;;5.60;;
68744;SDS011;73143;45.456;11.064;2024-03-08T17:08:33;7.90;;;5.30;;
68744;SDS011;73143;45.456;11.064;2024-03-08T17:11:15;7.20;;;4.70;;
68744;SDS011;73143;45.456;11.064;2024-03-08T17:13:57;8.10;;;5.00;;
68744;SDS011;73143;45.456;11.064;2024-03-08T17:16:37;10.00;;;6.40;;
68744;SDS011;73143;45.456;11.064;2024-03-08T17:19:21;7.90;;;5.20;;
68744;SDS011;73143;45.456;11.064;2024-03-08T17:22:05;10.00;;;5.90;;
68744;SDS011;73143;45.456;11.064;2024-03-08T17:24:42;8.70;;;5.40;;
68744;SDS011;73143;45.456;11.064;2024-03-08T17:27:26;10.40;;;5.80;;
68744;SDS011;73143;45.456;11.064;2024-03-08T17:30:11;8.70;;;5.30;;
68744;SDS011;73143;45.456;11.064;2024-03-08T17:33:05;9.30;;;5.90;;
68744;SDS011;73143;45.456;11.064;2024-03-08T17:35:49;10.10;;;6.60;;
68744;SDS011;73143;45.456;11.064;2024-03-08T17:38:33;8.40;;;5.60;;
68744;SDS011;73143;45.456;11.064;2024-03-08T17:41:22;9.80;;;5.60;;
68744;SDS011;73143;45.456;11.064;2024-03-08T17:43:59;10.00;;;6.40;;
68744;SDS011;73143;45.456;11.064;2024-03-08T17:46:38;11.20;;;6.30;;
68744;SDS011;73143;45.456;11.064;2024-03-08T17:49:19;9.30;;;5.70;;
68744;SDS011;73143;45.456;11.064;2024-03-08T17:52:00;10.40;;;6.20;;
68744;SDS011;73143;45.456;11.064;2024-03-08T17:54:39;10.20;;;6.20;;
68744;SDS011;73143;45.456;11.064;2024-03-08T17:57:16;10.10;;;6.10;;
68744;SDS011;73143;45.456;11.064;2024-03-08T17:59:52;9.30;;;5.40;;
68744;SDS011;73143;45.456;11.064;2024-03-08T18:02:36;11.40;;;7.10;;
68744;SDS011;73143;45.456;11.064;2024-03-08T18:05:13;9.90;;;6.30;;
68744;SDS011;73143;45.456;11.064;2024-03-08T18:07:50;11.30;;;7.10;;
68744;SDS011;73143;45.456;11.064;2024-03-08T18:10:32;8.90;;;5.50;;
68744;SDS011;73143;45.456;11.064;2024-03-08T18:13:13;10.10;;;6.50;;
68744;SDS011;73143;45.456;11.064;2024-03-08T18:16:03;14.00;;;6.60;;
68744;SDS011;73143;45.456;11.064;2024-03-08T18:18:51;10.60;;;6.60;;
68744;SDS011;73143;45.456;11.064;2024-03-08T18:21:32;9.10;;;5.30;;
68744;SDS011;73143;45.456;11.064;2024-03-08T18:24:16;10.70;;;6.90;;
68744;SDS011;73143;45.456;11.064;2024-03-08T18:26:55;10.60;;;6.10;;
68744;SDS011;73143;45.456;11.064;2024-03-08T18:29:34;11.60;;;6.90;;
68744;SDS011;73143;45.456;11.064;2024-03-08T18:32:34;8.00;;;5.00;;
68744;SDS011;73143;45.456;11.064;2024-03-08T18:35:19;11.80;;;6.10;;
68744;SDS011;73143;45.456;11.064;2024-03-08T18:37:58;11.30;;;6.40;;
68744;SDS011;73143;45.456;11.064;2024-03-08T18:40:39;11.60;;;6.40;;
68744;SDS011;73143;45.456;11.064;2024-03-08T18:43:20;12.40;;;6.80;;
68744;SDS011;73143;45.456;11.064;2024-03-08T18:45:58;11.10;;;7.10;;
68744;SDS011;73143;45.456;11.064;2024-03-08T18:48:38;10.40;;;6.50;;
68744;SDS011;73143;45.456;11.064;2024-03-08T18:51:25;11.10;;;6.20;;
68744;SDS011;73143;45.456;11.064;2024-03-08T18:54:06;11.30;;;6.50;;
68744;SDS011;73143;45.456;11.064;2024-03-08T18:56:49;12.00;;;6.70;;
68744;SDS011;73143;45.456;11.064;2024-03-08T18:59:38;12.00;;;7.60;;